<?xml version="1.0" encoding="UTF-8" standalone="no" ?><gpx xmlns="http://www.topografix.com/GPX/1/1" xmlns:gpxx="http://www.garmin.com/xmlschemas/GpxExtensions/v3" xmlns:gpxtrkx="http://www.garmin.com/xmlschemas/TrackStatsExtension/v1" xmlns:wptx1="http://www.garmin.com/xmlschemas/WaypointExtension/v1" xmlns:gpxtpx="http://www.garmin.com/xmlschemas/TrackPointExtension/v1" creator="GPSMAP 64" version="1.1" xmlns:xsi="http://www.w3.org/2001/XMLSchema-instance" xsi:schemaLocation="http://www.topografix.com/GPX/1/1 http://www.topografix.com/GPX/1/1/gpx.xsd http://www.garmin.com/xmlschemas/GpxExtensions/v3 http://www8.garmin.com/xmlschemas/GpxExtensionsv3.xsd http://www.garmin.com/xmlschemas/TrackStatsExtension/v1 http://www8.garmin.com/xmlschemas/TrackStatsExtension.xsd http://www.garmin.com/xmlschemas/WaypointExtension/v1 http://www8.garmin.com/xmlschemas/WaypointExtensionv1.xsd http://www.garmin.com/xmlschemas/TrackPointExtension/v1 http://www.garmin.com/xmlschemas/TrackPointExtensionv1.xsd"><metadata><link href="http://www.garmin.com"><text>Garmin International</text></link><time>2026-05-05T17:49:22Z</time></metadata><trk><name>2026-05-05 20:49:19</name><extensions><gpxx:TrackExtension><gpxx:DisplayColor>Red</gpxx:DisplayColor></gpxx:TrackExtension><gpxtrkx:TrackStatsExtension><gpxtrkx:Distance>1098.000</gpxtrkx:Distance><gpxtrkx:TotalElapsedTime>2341</gpxtrkx:TotalElapsedTime><gpxtrkx:MovingTime>1513</gpxtrkx:MovingTime><gpxtrkx:StoppedTime>826</gpxtrkx:StoppedTime><gpxtrkx:MovingSpeed>0.726</gpxtrkx:MovingSpeed><gpxtrkx:MaxSpeed>101.419</gpxtrkx:MaxSpeed><gpxtrkx:MaxElevation>4267.865</gpxtrkx:MaxElevation><gpxtrkx:MinElevation>-1461.666</gpxtrkx:MinElevation><gpxtrkx:Ascent>200467.000</gpxtrkx:Ascent><gpxtrkx:Descent>201196.031</gpxtrkx:Descent><gpxtrkx:AvgAscentRate>0.069</gpxtrkx:AvgAscentRate><gpxtrkx:MaxAscentRate>18.177</gpxtrkx:MaxAscentRate><gpxtrkx:AvgDescentRate>0.072</gpxtrkx:AvgDescentRate><gpxtrkx:MaxDescentRate>-16.187</gpxtrkx:MaxDescentRate></gpxtrkx:TrackStatsExtension></extensions><trkseg><trkpt lat="59.5578568988" lon="31.4558219723"><ele>46.41</ele><time>2026-05-05T17:10:21Z</time></trkpt><trkpt lat="59.5579304919" lon="31.4558176976"><ele>45.72</ele><time>2026-05-05T17:10:38Z</time></trkpt><trkpt lat="59.5579881594" lon="31.4558140934"><ele>45.14</ele><time>2026-05-05T17:10:45Z</time></trkpt><trkpt lat="59.5581702981" lon="31.4557240717"><ele>42.39</ele><time>2026-05-05T17:11:03Z</time></trkpt><trkpt lat="59.5583227649" lon="31.4556730259"><ele>40.91</ele><time>2026-05-05T17:11:18Z</time></trkpt><trkpt lat="59.5585152972" lon="31.4555811603"><ele>39.63</ele><time>2026-05-05T17:11:34Z</time></trkpt><trkpt lat="59.5586937480" lon="31.4554558508"><ele>41.66</ele><time>2026-05-05T17:11:50Z</time></trkpt><trkpt lat="59.5587742142" lon="31.4554210659"><ele>41.66</ele><time>2026-05-05T17:11:56Z</time></trkpt><trkpt lat="59.5588706061" lon="31.4553614706"><ele>41.46</ele><time>2026-05-05T17:12:11Z</time></trkpt><trkpt lat="59.5590274315" lon="31.4552540146"><ele>40.62</ele><time>2026-05-05T17:12:25Z</time></trkpt><trkpt lat="59.5590938162" lon="31.4552123565"><ele>40.20</ele><time>2026-05-05T17:12:30Z</time></trkpt><trkpt lat="59.5592461992" lon="31.4550892264"><ele>40.98</ele><time>2026-05-05T17:12:47Z</time></trkpt><trkpt lat="59.5592667349" lon="31.4550892264"><ele>41.43</ele><time>2026-05-05T17:13:30Z</time></trkpt><trkpt lat="59.5592617057" lon="31.4550697803"><ele>42.11</ele><time>2026-05-05T17:13:53Z</time></trkpt><trkpt lat="59.5592164434" lon="31.4550476521"><ele>41.84</ele><time>2026-05-05T17:14:12Z</time></trkpt><trkpt lat="59.5592162758" lon="31.4549338259"><ele>41.89</ele><time>2026-05-05T17:14:32Z</time></trkpt><trkpt lat="59.5592482109" lon="31.4548199996"><ele>42.10</ele><time>2026-05-05T17:14:49Z</time></trkpt><trkpt lat="59.5591883641" lon="31.4546552114"><ele>40.73</ele><time>2026-05-05T17:15:05Z</time></trkpt><trkpt lat="59.5591734443" lon="31.4546206780"><ele>43.83</ele><time>2026-05-05T17:15:37Z</time></trkpt><trkpt lat="59.5591773000" lon="31.4545686264"><ele>44.67</ele><time>2026-05-05T17:16:14Z</time></trkpt><trkpt lat="59.5591122564" lon="31.4544115495"><ele>43.66</ele><time>2026-05-05T17:16:35Z</time></trkpt><trkpt lat="59.5590730291" lon="31.4543278143"><ele>43.43</ele><time>2026-05-05T17:16:58Z</time></trkpt><trkpt lat="59.5590393338" lon="31.4542703982"><ele>44.09</ele><time>2026-05-05T17:17:27Z</time></trkpt><trkpt lat="59.5589731168" lon="31.4540758543"><ele>43.11</ele><time>2026-05-05T17:17:45Z</time></trkpt><trkpt lat="59.5588985179" lon="31.4539120719"><ele>42.11</ele><time>2026-05-05T17:18:01Z</time></trkpt><trkpt lat="59.5588530879" lon="31.4538039453"><ele>40.05</ele><time>2026-05-05T17:18:19Z</time></trkpt><trkpt lat="59.5587375853" lon="31.4535946492"><ele>38.53</ele><time>2026-05-05T17:18:39Z</time></trkpt><trkpt lat="59.5586478151" lon="31.4533706009"><ele>37.30</ele><time>2026-05-05T17:18:58Z</time></trkpt><trkpt lat="59.5585607272" lon="31.4531404339"><ele>38.02</ele><time>2026-05-05T17:19:14Z</time></trkpt><trkpt lat="59.5585297141" lon="31.4529148769"><ele>35.89</ele><time>2026-05-05T17:19:31Z</time></trkpt><trkpt lat="59.5584997907" lon="31.4527872205"><ele>35.15</ele><time>2026-05-05T17:19:39Z</time></trkpt><trkpt lat="59.5584443025" lon="31.4526153915"><ele>36.67</ele><time>2026-05-05T17:19:53Z</time></trkpt><trkpt lat="59.5584148820" lon="31.4525319915"><ele>38.29</ele><time>2026-05-05T17:20:06Z</time></trkpt><trkpt lat="59.5584111102" lon="31.4525049180"><ele>40.21</ele><time>2026-05-05T17:20:29Z</time></trkpt><trkpt lat="59.5583906583" lon="31.4524791017"><ele>41.26</ele><time>2026-05-05T17:20:48Z</time></trkpt><trkpt lat="59.5583315659" lon="31.4522935264"><ele>40.62</ele><time>2026-05-05T17:21:04Z</time></trkpt><trkpt lat="59.5582249481" lon="31.4521125611"><ele>40.01</ele><time>2026-05-05T17:21:21Z</time></trkpt><trkpt lat="59.5581036620" lon="31.4520794526"><ele>41.24</ele><time>2026-05-05T17:21:36Z</time></trkpt><trkpt lat="59.5579812862" lon="31.4520232938"><ele>42.22</ele><time>2026-05-05T17:21:54Z</time></trkpt><trkpt lat="59.5579128899" lon="31.4519325178"><ele>42.31</ele><time>2026-05-05T17:22:12Z</time></trkpt><trkpt lat="59.5579044241" lon="31.4519041032"><ele>42.89</ele><time>2026-05-05T17:22:35Z</time></trkpt><trkpt lat="59.5578736626" lon="31.4518086333"><ele>42.16</ele><time>2026-05-05T17:22:43Z</time></trkpt><trkpt lat="59.5578309149" lon="31.4516829047"><ele>40.65</ele><time>2026-05-05T17:22:55Z</time></trkpt><trkpt lat="59.5577482693" lon="31.4515391551"><ele>38.44</ele><time>2026-05-05T17:23:12Z</time></trkpt><trkpt lat="59.5577172562" lon="31.4514977485"><ele>38.25</ele><time>2026-05-05T17:23:16Z</time></trkpt><trkpt lat="59.5575781167" lon="31.4513358101"><ele>37.33</ele><time>2026-05-05T17:23:35Z</time></trkpt><trkpt lat="59.5575198624" lon="31.4512940682"><ele>37.32</ele><time>2026-05-05T17:23:51Z</time></trkpt><trkpt lat="59.5575167611" lon="31.4512835070"><ele>36.49</ele><time>2026-05-05T17:24:13Z</time></trkpt><trkpt lat="59.5574424975" lon="31.4511633106"><ele>36.14</ele><time>2026-05-05T17:24:34Z</time></trkpt><trkpt lat="59.5573737659" lon="31.4510766417"><ele>36.71</ele><time>2026-05-05T17:24:49Z</time></trkpt><trkpt lat="59.5573650487" lon="31.4510744624"><ele>39.12</ele><time>2026-05-05T17:25:07Z</time></trkpt><trkpt lat="59.5573687367" lon="31.4510940760"><ele>38.56</ele><time>2026-05-05T17:25:31Z</time></trkpt><trkpt lat="59.5573571697" lon="31.4511273522"><ele>38.07</ele><time>2026-05-05T17:25:42Z</time></trkpt><trkpt lat="59.5573585108" lon="31.4510917291"><ele>38.58</ele><time>2026-05-05T17:26:12Z</time></trkpt><trkpt lat="59.5573561639" lon="31.4511064813"><ele>40.36</ele><time>2026-05-05T17:26:36Z</time></trkpt><trkpt lat="59.5573440939" lon="31.4511162881"><ele>41.90</ele><time>2026-05-05T17:27:05Z</time></trkpt><trkpt lat="59.5573398191" lon="31.4510833472"><ele>41.95</ele><time>2026-05-05T17:27:29Z</time></trkpt><trkpt lat="59.5573067944" lon="31.4510163758"><ele>41.79</ele><time>2026-05-05T17:27:54Z</time></trkpt><trkpt lat="59.5572579280" lon="31.4509600494"><ele>41.34</ele><time>2026-05-05T17:28:07Z</time></trkpt><trkpt lat="59.5572306868" lon="31.4509354904"><ele>42.49</ele><time>2026-05-05T17:28:24Z</time></trkpt><trkpt lat="59.5572409965" lon="31.4509522542"><ele>42.10</ele><time>2026-05-05T17:28:54Z</time></trkpt><trkpt lat="59.5572516415" lon="31.4509540144"><ele>42.28</ele><time>2026-05-05T17:29:13Z</time></trkpt><trkpt lat="59.5572534855" lon="31.4509551041"><ele>43.02</ele><time>2026-05-05T17:29:41Z</time></trkpt><trkpt lat="59.5572568383" lon="31.4509613067"><ele>43.13</ele><time>2026-05-05T17:30:07Z</time></trkpt><trkpt lat="59.5572658069" lon="31.4509823453"><ele>44.00</ele><time>2026-05-05T17:30:30Z</time></trkpt><trkpt lat="59.5572710875" lon="31.4509811718"><ele>45.14</ele><time>2026-05-05T17:30:56Z</time></trkpt><trkpt lat="59.5573099796" lon="31.4510540944"><ele>45.33</ele><time>2026-05-05T17:31:14Z</time></trkpt><trkpt lat="59.5574354567" lon="31.4511804935"><ele>45.79</ele><time>2026-05-05T17:31:35Z</time></trkpt><trkpt lat="59.5575719140" lon="31.4512805734"><ele>45.58</ele><time>2026-05-05T17:31:53Z</time></trkpt><trkpt lat="59.5576797053" lon="31.4513971657"><ele>45.69</ele><time>2026-05-05T17:32:10Z</time></trkpt><trkpt lat="59.5578061044" lon="31.4515613671"><ele>45.43</ele><time>2026-05-05T17:32:30Z</time></trkpt><trkpt lat="59.5578875765" lon="31.4517025184"><ele>45.94</ele><time>2026-05-05T17:32:43Z</time></trkpt><trkpt lat="59.5579943620" lon="31.4518826455"><ele>47.30</ele><time>2026-05-05T17:33:05Z</time></trkpt><trkpt lat="59.5580988005" lon="31.4521423168"><ele>48.56</ele><time>2026-05-05T17:33:26Z</time></trkpt><trkpt lat="59.5582044125" lon="31.4524056762"><ele>49.02</ele><time>2026-05-05T17:33:48Z</time></trkpt><trkpt lat="59.5582942665" lon="31.4525416307"><ele>49.28</ele><time>2026-05-05T17:34:03Z</time></trkpt><trkpt lat="59.5582848787" lon="31.4524982963"><ele>45.59</ele><time>2026-05-05T17:34:26Z</time></trkpt><trkpt lat="59.5582614094" lon="31.4525051694"><ele>44.18</ele><time>2026-05-05T17:34:54Z</time></trkpt><trkpt lat="59.5583283808" lon="31.4526597317"><ele>44.47</ele><time>2026-05-05T17:35:12Z</time></trkpt><trkpt lat="59.5584293827" lon="31.4528634120"><ele>45.21</ele><time>2026-05-05T17:35:31Z</time></trkpt><trkpt lat="59.5585288759" lon="31.4530755579"><ele>46.29</ele><time>2026-05-05T17:35:49Z</time></trkpt><trkpt lat="59.5586110186" lon="31.4532448724"><ele>46.98</ele><time>2026-05-05T17:36:06Z</time></trkpt><trkpt lat="59.5586845279" lon="31.4533561002"><ele>47.21</ele><time>2026-05-05T17:36:17Z</time></trkpt><trkpt lat="59.5587706938" lon="31.4535197150"><ele>47.20</ele><time>2026-05-05T17:36:31Z</time></trkpt><trkpt lat="59.5588289481" lon="31.4536712598"><ele>46.38</ele><time>2026-05-05T17:36:49Z</time></trkpt><trkpt lat="59.5588942431" lon="31.4538466930"><ele>46.36</ele><time>2026-05-05T17:37:07Z</time></trkpt><trkpt lat="59.5589670818" lon="31.4540529717"><ele>46.33</ele><time>2026-05-05T17:37:25Z</time></trkpt><trkpt lat="59.5590378251" lon="31.4542468451"><ele>46.23</ele><time>2026-05-05T17:37:45Z</time></trkpt><trkpt lat="59.5590863563" lon="31.4544362761"><ele>46.24</ele><time>2026-05-05T17:38:08Z</time></trkpt><trkpt lat="59.5591772161" lon="31.4546148106"><ele>46.31</ele><time>2026-05-05T17:38:28Z</time></trkpt><trkpt lat="59.5592196286" lon="31.4548217598"><ele>46.16</ele><time>2026-05-05T17:38:51Z</time></trkpt><trkpt lat="59.5592121687" lon="31.4550399408"><ele>47.13</ele><time>2026-05-05T17:39:08Z</time></trkpt><trkpt lat="59.5590736158" lon="31.4551908150"><ele>47.46</ele><time>2026-05-05T17:39:25Z</time></trkpt><trkpt lat="59.5589390025" lon="31.4552934095"><ele>47.20</ele><time>2026-05-05T17:39:42Z</time></trkpt><trkpt lat="59.5587481465" lon="31.4554070681"><ele>45.97</ele><time>2026-05-05T17:40:03Z</time></trkpt><trkpt lat="59.5584872179" lon="31.4555436932"><ele>44.13</ele><time>2026-05-05T17:40:25Z</time></trkpt><trkpt lat="59.5582512673" lon="31.4556438569"><ele>42.73</ele><time>2026-05-05T17:40:46Z</time></trkpt><trkpt lat="59.5581658557" lon="31.4557277597"><ele>42.85</ele><time>2026-05-05T17:40:59Z</time></trkpt><trkpt lat="59.5580462459" lon="31.4557772968"><ele>43.09</ele><time>2026-05-05T17:41:23Z</time></trkpt><trkpt lat="59.5580414683" lon="31.4558119141"><ele>43.36</ele><time>2026-05-05T17:41:42Z</time></trkpt><trkpt lat="59.5579993911" lon="31.4558701683"><ele>44.28</ele><time>2026-05-05T17:42:09Z</time></trkpt><trkpt lat="59.5580139756" lon="31.4558614511"><ele>43.18</ele><time>2026-05-05T17:42:36Z</time></trkpt><trkpt lat="59.5580309909" lon="31.4558780473"><ele>42.33</ele><time>2026-05-05T17:43:09Z</time></trkpt><trkpt lat="59.5580361877" lon="31.4558738563"><ele>42.61</ele><time>2026-05-05T17:43:33Z</time></trkpt><trkpt lat="59.5580359362" lon="31.4558791369"><ele>43.10</ele><time>2026-05-05T17:44:01Z</time></trkpt><trkpt lat="59.5580226928" lon="31.4559071325"><ele>44.35</ele><time>2026-05-05T17:44:26Z</time></trkpt><trkpt lat="59.5580082759" lon="31.4559051208"><ele>44.47</ele><time>2026-05-05T17:45:08Z</time></trkpt><trkpt lat="59.5580340084" lon="31.4558870997"><ele>44.31</ele><time>2026-05-05T17:45:55Z</time></trkpt><trkpt lat="59.5580479223" lon="31.4558856748"><ele>47.66</ele><time>2026-05-05T17:46:57Z</time></trkpt><trkpt lat="59.5580533706" lon="31.4558873512"><ele>47.91</ele><time>2026-05-05T17:48:00Z</time></trkpt><trkpt lat="59.5580358524" lon="31.4558617864"><ele>46.97</ele><time>2026-05-05T17:49:01Z</time></trkpt></trkseg></trk></gpx>